Time;durP1;ratioP1;P1;durP2;ratioP2;P2;SDS_P1;SDS_P2;PMS_P1;PMS_P2;Temp;Humidity;BMP_temperature;BMP_pressure;BME280_temperature;BME280_humidity;BME280_pressure;Samples;Min_cycle;Max_cycle;Signal;HPM_P1;HPM_P2
2022/08/08 00:01:08;;;;;;;1.80;1.40;;;;;;;22.10;37.57;97777.59;5029775;28;20426;-68
2022/08/08 00:03:47;;;;;;;1.90;1.40;;;;;;;22.10;37.19;97772.25;5024508;28;20469;-69
2022/08/08 00:06:24;;;;;;;2.60;1.60;;;;;;;22.02;37.44;97776.00;5028721;28;20445;-68
2022/08/08 00:09:17;;;;;;;2.70;1.40;;;;;;;21.98;37.85;97769.47;5030255;28;20465;-67
2022/08/08 00:11:44;;;;;;;1.77;1.50;;;;;;;22.00;37.50;97770.03;5019560;28;20438;-70
2022/08/08 00:14:26;;;;;;;1.67;1.57;;;;;;;22.03;37.70;97769.63;5028559;28;20442;-69
2022/08/08 00:17:18;;;;;;;1.67;1.53;;;;;;;22.03;37.59;97774.97;5030064;28;20500;-69
2022/08/08 00:19:58;;;;;;;3.57;1.80;;;;;;;21.95;38.04;97775.22;5020467;28;20470;-69
2022/08/08 00:22:27;;;;;;;2.57;1.60;;;;;;;21.87;37.96;97775.44;5028935;28;20426;-69
2022/08/08 00:24:59;;;;;;;2.07;1.73;;;;;;;21.87;38.21;97786.09;5028880;28;20946;-68
2022/08/08 00:27:25;;;;;;;2.43;1.50;;;;;;;21.90;38.03;97778.53;5031317;28;20494;-68
2022/08/08 00:30:08;;;;;;;2.53;1.60;;;;;;;21.89;37.85;97784.88;5029200;28;20426;-68
2022/08/08 00:32:44;;;;;;;2.73;1.53;;;;;;;21.85;38.16;97789.00;5027372;28;20492;-68
2022/08/08 00:35:30;;;;;;;1.73;1.27;;;;;;;21.76;38.30;97790.25;5030960;28;20474;-69
2022/08/08 00:38:05;;;;;;;1.87;1.57;;;;;;;21.58;38.96;97791.69;5032170;28;20858;-68
2022/08/08 00:40:52;;;;;;;3.63;1.77;;;;;;;21.66;38.85;97796.03;5026818;28;20504;-69
2022/08/08 00:43:54;;;;;;;1.53;1.27;;;;;;;21.73;38.27;97793.34;5034502;28;20454;-68
2022/08/08 00:46:43;;;;;;;1.90;1.47;;;;;;;21.62;38.32;97798.28;5031422;28;20604;-71
2022/08/08 00:49:20;;;;;;;3.10;1.57;;;;;;;21.66;38.59;97803.22;5023896;28;20438;-68
2022/08/08 00:52:04;;;;;;;1.73;1.47;;;;;;;21.76;38.55;97801.75;5033075;28;20461;-69
2022/08/08 00:55:01;;;;;;;1.60;1.40;;;;;;;21.78;38.43;97806.88;5027744;28;20429;-68
2022/08/08 00:57:39;;;;;;;1.40;1.20;;;;;;;21.87;38.24;97805.63;5027867;28;20421;-67
2022/08/08 01:00:15;;;;;;;1.90;1.80;;;;;;;21.77;38.44;97810.56;5032779;28;20437;-69
2022/08/08 01:02:56;;;;;;;4.23;1.50;;;;;;;21.74;38.64;97802.97;5027585;28;20418;-67
2022/08/08 01:05:21;;;;;;;1.70;1.60;;;;;;;21.63;38.45;97804.44;5031527;28;21024;-69
2022/08/08 01:08:06;;;;;;;2.07;1.43;;;;;;;21.56;38.41;97812.41;5032730;28;20557;-67
2022/08/08 01:11:09;;;;;;;1.40;1.30;;;;;;;21.56;38.73;97812.41;5029382;28;20180;-68
2022/08/08 01:14:28;;;;;;;1.60;1.23;;;;;;;21.50;38.81;97815.94;5025565;28;20593;-69
2022/08/08 01:16:53;;;;;;;1.20;1.10;;;;;;;21.51;38.62;97811.41;5032408;28;20461;-68
2022/08/08 01:19:38;;;;;;;1.33;1.23;;;;;;;21.50;38.74;97807.94;5032723;28;20451;-69
2022/08/08 01:22:31;;;;;;;1.60;1.33;;;;;;;21.57;38.71;97798.06;5033393;28;20326;-68
2022/08/08 01:24:59;;;;;;;3.90;1.67;;;;;;;21.70;38.24;97807.09;5035830;28;20937;-68
2022/08/08 01:27:43;;;;;;;1.40;1.23;;;;;;;21.71;38.38;97806.06;5034079;28;20505;-67
2022/08/08 01:30:33;;;;;;;4.07;1.43;;;;;;;21.62;38.74;97800.97;5031976;28;20418;-67
2022/08/08 01:33:24;;;;;;;3.50;1.47;;;;;;;21.48;39.11;97807.31;5024139;28;20914;-67
2022/08/08 01:36:17;;;;;;;1.70;1.60;;;;;;;21.43;39.07;97799.94;5032733;28;20445;-67
2022/08/08 01:39:04;;;;;;;2.50;1.30;;;;;;;21.41;39.02;97809.19;5031692;28;20423;-67
2022/08/08 01:41:30;;;;;;;1.30;1.20;;;;;;;21.35;39.02;97810.84;5026774;28;20445;-68
2022/08/08 01:44:06;;;;;;;1.33;1.20;;;;;;;21.35;38.97;97808.19;5032298;28;20851;-68
2022/08/08 01:46:38;;;;;;;2.30;1.60;;;;;;;21.28;39.17;97808.19;5031254;28;20276;-68
2022/08/08 01:49:31;;;;;;;1.73;1.43;;;;;;;21.31;39.22;97801.59;5028815;28;20993;-68
2022/08/08 01:52:15;;;;;;;2.27;1.40;;;;;;;21.26;39.12;97802.22;5028553;28;20433;-69
2022/08/08 01:54:56;;;;;;;2.17;1.73;;;;;;;21.23;39.37;97805.31;5024663;28;20474;-68
2022/08/08 01:57:25;;;;;;;1.50;1.40;;;;;;;21.15;39.33;97813.50;5031230;28;20549;-69
2022/08/08 02:00:08;;;;;;;2.37;1.20;;;;;;;21.15;39.64;97809.00;5026640;28;20922;-68
2022/08/08 02:02:59;;;;;;;1.70;1.20;;;;;;;21.14;39.75;97807.34;5028934;28;20420;-68
2022/08/08 02:05:38;;;;;;;1.30;1.20;;;;;;;21.08;39.83;97812.69;5029941;28;20449;-68
2022/08/08 02:08:33;;;;;;;2.83;1.60;;;;;;;20.99;40.20;97804.91;5030324;28;21055;-69
2022/08/08 02:11:29;;;;;;;1.40;1.30;;;;;;;20.97;40.43;97806.13;5031020;28;20508;-67
2022/08/08 02:14:05;;;;;;;1.63;1.40;;;;;;;20.89;40.58;97809.81;5031882;28;20423;-69
2022/08/08 02:16:47;;;;;;;1.50;1.40;;;;;;;20.94;40.57;97796.69;5018651;28;20426;-68
2022/08/08 02:19:46;;;;;;;1.47;1.37;;;;;;;20.93;40.38;97795.06;5029873;28;20921;-68
2022/08/08 02:22:30;;;;;;;1.63;1.53;;;;;;;20.84;40.41;97796.28;5024359;28;20522;-68
2022/08/08 02:25:08;;;;;;;1.67;1.57;;;;;;;20.79;40.88;97798.75;5026057;28;20466;-68
2022/08/08 02:27:52;;;;;;;1.70;1.40;;;;;;;20.72;40.86;97791.53;5027555;28;20464;-68
2022/08/08 02:30:25;;;;;;;2.13;1.43;;;;;;;20.68;40.82;97798.28;5028595;28;20417;-68
2022/08/08 02:33:00;;;;;;;1.50;1.40;;;;;;;20.75;40.74;97793.00;5026113;28;20438;-67
2022/08/08 02:35:34;;;;;;;2.33;1.27;;;;;;;20.79;40.45;97794.22;5029617;28;20444;-68
2022/08/08 02:38:33;;;;;;;1.60;1.40;;;;;;;20.75;40.71;97792.19;5030564;28;20422;-68
2022/08/08 02:41:04;;;;;;;1.50;1.37;;;;;;;20.83;40.37;97794.63;5035129;28;20439;-67
2022/08/08 02:44:05;;;;;;;3.30;1.53;;;;;;;20.72;40.86;97802.19;5023376;28;20426;-68
2022/08/08 02:46:52;;;;;;;2.33;1.73;;;;;;;20.70;41.00;97785.59;5022460;28;20529;-67
2022/08/08 02:49:46;;;;;;;4.20;1.70;;;;;;;20.59;40.93;97798.69;5029521;28;20422;-67
2022/08/08 02:52:42;;;;;;;4.20;1.40;;;;;;;20.58;40.73;97791.72;5029450;28;20517;-67
2022/08/08 02:55:26;;;;;;;1.90;1.70;;;;;;;20.65;40.87;97798.72;5029315;28;20568;-67
2022/08/08 02:58:10;;;;;;;2.60;1.53;;;;;;;20.58;40.66;97792.53;5023864;28;20411;-67
2022/08/08 03:00:56;;;;;;;2.73;1.57;;;;;;;20.58;40.92;97802.38;5019754;28;20423;-69
2022/08/08 03:04:02;;;;;;;3.10;1.63;;;;;;;20.52;40.88;97804.00;5029958;28;20422;-67
2022/08/08 03:06:49;;;;;;;2.33;1.50;;;;;;;20.48;41.00;97803.56;5030354;28;20431;-69
2022/08/08 03:09:33;;;;;;;2.90;1.40;;;;;;;20.47;41.00;97796.63;5028488;28;20430;-68
2022/08/08 03:12:17;;;;;;;2.30;1.97;;;;;;;20.44;41.00;97809.50;5030357;28;20419;-68
2022/08/08 03:15:36;;;;;;;1.83;1.70;;;;;;;20.42;41.17;97804.38;5024510;28;20442;-69
2022/08/08 03:18:08;;;;;;;2.00;1.73;;;;;;;20.38;41.62;97806.63;4989219;28;20416;-67
2022/08/08 03:20:49;;;;;;;1.37;1.27;;;;;;;20.30;41.77;97812.13;4965964;28;20869;-68
2022/08/08 03:23:16;;;;;;;3.00;1.73;;;;;;;20.30;41.51;97811.31;5007666;28;20462;-68
2022/08/08 03:25:43;;;;;;;1.87;1.53;;;;;;;20.28;41.67;97810.69;4984566;28;20461;-67
2022/08/08 03:28:16;;;;;;;1.70;1.50;;;;;;;20.24;41.59;97807.59;5038634;28;20976;-67
2022/08/08 03:30:43;;;;;;;1.40;1.30;;;;;;;20.17;41.77;97806.75;5037866;28;20420;-67
2022/08/08 03:33:17;;;;;;;5.60;1.50;;;;;;;20.14;42.17;97810.63;5039788;28;20414;-67
2022/08/08 03:35:48;;;;;;;3.33;1.70;;;;;;;20.14;42.09;97809.84;5046043;28;20948;-68
2022/08/08 03:38:15;;;;;;;1.50;1.40;;;;;;;20.13;42.09;97810.84;5036074;28;20431;-68
2022/08/08 03:40:41;;;;;;;1.47;1.37;;;;;;;20.08;42.23;97817.56;5049464;28;20525;-69
2022/08/08 03:43:09;;;;;;;2.47;1.63;;;;;;;20.08;42.23;97817.56;5039792;28;20502;-68
2022/08/08 03:45:34;;;;;;;5.63;1.70;;;;;;;20.02;42.29;97821.03;5040720;28;20199;-68
2022/08/08 03:48:08;;;;;;;3.03;2.00;;;;;;;19.83;42.98;97827.88;5033141;28;20805;-68
2022/08/08 03:50:35;;;;;;;2.27;2.07;;;;;;;19.78;42.58;97831.09;5028484;28;20179;-68
2022/08/08 03:53:05;;;;;;;2.57;1.70;;;;;;;19.80;42.99;97834.41;5045227;28;20984;-68
2022/08/08 03:55:30;;;;;;;3.83;1.90;;;;;;;19.84;42.88;97834.00;5033285;28;20437;-68
2022/08/08 03:57:56;;;;;;;2.60;1.73;;;;;;;19.87;43.04;97838.97;5047133;28;20482;-68
2022/08/08 04:00:24;;;;;;;3.60;1.60;;;;;;;19.99;43.13;97841.88;5035087;28;20176;-68
2022/08/08 04:03:06;;;;;;;1.93;1.63;;;;;;;20.11;42.79;97842.97;5035914;28;20206;-68
2022/08/08 04:05:34;;;;;;;1.80;1.67;;;;;;;20.21;42.66;97855.91;5029820;28;21011;-68
2022/08/08 04:08:01;;;;;;;2.60;1.60;;;;;;;20.29;42.29;97847.75;5031260;28;20974;-68
2022/08/08 04:10:28;;;;;;;2.67;1.43;;;;;;;20.33;41.76;97848.19;5041896;28;20417;-68
2022/08/08 04:12:54;;;;;;;2.90;1.60;;;;;;;20.20;42.06;97843.63;5051350;28;20421;-68
2022/08/08 04:15:19;;;;;;;1.67;1.57;;;;;;;20.08;42.54;97848.69;5045978;28;20445;-68
2022/08/08 04:17:45;;;;;;;2.97;2.07;;;;;;;20.02;42.64;97860.94;5039065;28;20436;-67
2022/08/08 04:20:10;;;;;;;2.97;1.77;;;;;;;19.96;42.88;97853.75;5044541;28;20225;-68
2022/08/08 04:22:36;;;;;;;1.60;1.50;;;;;;;19.99;42.82;97852.53;5039740;28;20187;-69
2022/08/08 04:25:02;;;;;;;2.53;1.80;;;;;;;19.98;42.52;97862.34;5044127;28;20241;-68
2022/08/08 04:27:27;;;;;;;4.80;2.00;;;;;;;19.97;42.61;97862.56;5043963;28;20205;-68
2022/08/08 04:29:53;;;;;;;5.40;2.27;;;;;;;19.93;42.73;97862.09;5049780;28;20414;-68
2022/08/08 04:32:18;;;;;;;2.50;1.83;;;;;;;19.94;42.83;97871.72;5044857;28;20180;-69
2022/08/08 04:34:44;;;;;;;3.10;2.20;;;;;;;19.98;42.97;97866.84;5045704;28;20576;-68
2022/08/08 04:37:10;;;;;;;3.83;2.10;;;;;;;19.94;42.93;97869.06;5048275;28;20195;-68
2022/08/08 04:39:36;;;;;;;2.30;2.03;;;;;;;19.90;42.94;97870.50;5039065;28;20187;-69
2022/08/08 04:42:01;;;;;;;3.27;1.80;;;;;;;19.90;43.19;97871.31;5031833;28;20426;-69
2022/08/08 04:44:27;;;;;;;2.20;1.80;;;;;;;19.88;42.94;97877.84;5043485;28;20264;-70
2022/08/08 04:46:53;;;;;;;2.47;1.83;;;;;;;19.98;43.30;97877.47;5045766;28;20183;-69
2022/08/08 04:49:18;;;;;;;5.40;2.10;;;;;;;19.98;43.58;97886.28;5041325;28;20639;-69
2022/08/08 04:51:44;;;;;;;4.43;1.90;;;;;;;20.05;43.21;97881.81;5047632;28;20183;-68
2022/08/08 04:54:09;;;;;;;4.93;2.00;;;;;;;20.03;43.18;97885.69;5038012;28;20187;-69
2022/08/08 04:56:35;;;;;;;4.40;2.10;;;;;;;19.97;43.57;97887.31;5044377;28;20215;-69
2022/08/08 04:59:00;;;;;;;2.73;2.20;;;;;;;20.03;43.43;97889.19;5043278;28;20179;-68
2022/08/08 05:01:26;;;;;;;3.37;1.80;;;;;;;20.08;43.53;97891.25;5044089;28;20172;-69
2022/08/08 05:03:51;;;;;;;3.47;2.07;;;;;;;20.15;43.59;97893.97;5038603;28;20682;-68
2022/08/08 05:06:17;;;;;;;4.03;1.83;;;;;;;20.22;43.37;97900.13;5044719;28;20294;-68
2022/08/08 05:08:42;;;;;;;2.97;2.10;;;;;;;20.26;43.36;97902.19;5040125;28;20249;-69
2022/08/08 05:11:12;;;;;;;4.70;1.93;;;;;;;20.31;43.46;97901.59;5048143;28;20661;-69
2022/08/08 05:13:41;;;;;;;2.40;2.03;;;;;;;20.32;43.11;97900.56;5036497;28;20190;-68
2022/08/08 05:16:07;;;;;;;2.83;2.53;;;;;;;20.40;43.51;97899.59;5041685;28;20450;-69
2022/08/08 05:18:32;;;;;;;4.03;2.17;;;;;;;20.41;43.23;97898.56;5050614;28;20417;-68
2022/08/08 05:21:01;;;;;;;4.43;2.43;;;;;;;20.41;43.25;97899.38;5024424;28;20171;-69
2022/08/08 05:23:27;;;;;;;3.10;2.40;;;;;;;20.46;42.97;97895.31;5051044;28;20175;-68
2022/08/08 05:25:53;;;;;;;3.10;2.47;;;;;;;20.53;43.10;97896.16;5041255;28;20457;-68
2022/08/08 05:28:18;;;;;;;4.10;2.70;;;;;;;20.60;43.29;97897.00;5042629;28;20213;-68
2022/08/08 05:30:44;;;;;;;9.43;2.60;;;;;;;20.69;43.01;97905.63;5048143;28;20187;-68
2022/08/08 05:33:09;;;;;;;3.33;2.00;;;;;;;20.75;42.79;97904.84;5042511;28;20639;-69
2022/08/08 05:35:35;;;;;;;3.20;2.40;;;;;;;20.85;43.22;97909.81;5046498;28;20230;-69
2022/08/08 05:38:05;;;;;;;7.30;2.53;;;;;;;20.93;42.96;97898.94;5042156;28;20188;-69
2022/08/08 05:40:32;;;;;;;7.60;2.50;;;;;;;20.99;42.83;97902.66;5034530;28;20225;-69
2022/08/08 05:43:04;;;;;;;2.60;2.20;;;;;;;21.08;42.47;97909.44;5043237;28;20906;-68
2022/08/08 05:45:36;;;;;;;13.67;3.20;;;;;;;21.15;42.48;97910.25;5035888;28;20452;-68
2022/08/08 05:48:04;;;;;;;9.57;4.50;;;;;;;21.20;42.04;97914.97;5044982;28;20446;-67
2022/08/08 05:50:30;;;;;;;7.07;3.03;;;;;;;21.25;42.20;97917.88;5028761;28;20828;-68
2022/08/08 05:52:57;;;;;;;10.73;3.50;;;;;;;21.32;41.78;97918.69;5047524;28;20411;-69
2022/08/08 05:55:22;;;;;;;11.43;3.73;;;;;;;21.37;41.93;97919.91;5044475;28;20466;-68
2022/08/08 05:57:50;;;;;;;17.47;3.80;;;;;;;21.43;42.27;97911.94;5050230;28;20501;-68
2022/08/08 06:00:16;;;;;;;15.33;3.60;;;;;;;21.57;41.93;97915.41;5041951;28;20192;-69
2022/08/08 06:05:31;;;;;;;5.00;2.60;;;;;;;21.92;41.26;97925.03;5030459;28;20198;-68
2022/08/08 06:07:57;;;;;;;5.83;2.80;;;;;;;22.09;41.26;97928.91;5041215;28;20491;-69
2022/08/08 06:10:23;;;;;;;4.50;2.53;;;;;;;22.27;40.97;97924.75;5045681;28;20427;-69
2022/08/08 06:12:50;;;;;;;4.77;2.50;;;;;;;22.41;40.19;97928.25;5048280;28;20433;-70
2022/08/08 06:15:15;;;;;;;5.93;2.67;;;;;;;22.57;39.74;97934.94;5045676;28;20214;-69
2022/08/08 06:17:41;;;;;;;7.53;2.90;;;;;;;22.72;39.20;97932.00;5037430;28;20920;-69
2022/08/08 06:20:10;;;;;;;11.60;2.43;;;;;;;22.84;39.28;97940.16;5026548;28;20177;-69
2022/08/08 06:22:35;;;;;;;15.00;2.63;;;;;;;22.88;39.17;97938.69;5038352;28;20665;-69
2022/08/08 06:25:01;;;;;;;8.23;2.40;;;;;;;23.00;39.08;97938.84;5046766;28;20444;-72
2022/08/08 06:27:51;;;;;;;9.03;2.20;;;;;;;23.09;39.26;97934.88;5038941;28;20859;-71
2022/08/08 06:30:18;;;;;;;3.73;2.37;;;;;;;23.19;39.13;97939.75;5044490;28;20189;-70
2022/08/08 06:32:49;;;;;;;3.07;2.03;;;;;;;23.35;39.14;97945.66;5027393;28;20484;-71
2022/08/08 06:35:16;;;;;;;7.50;2.50;;;;;;;23.51;39.32;97944.28;5041241;28;20437;-70
2022/08/08 06:37:53;;;;;;;2.20;2.00;;;;;;;23.66;38.95;97950.13;5028655;28;20526;-70
2022/08/08 06:40:22;;;;;;;2.57;1.90;;;;;;;23.84;38.88;97940.50;5033254;28;20419;-68
2022/08/08 06:43:08;;;;;;;2.20;2.00;;;;;;;23.99;38.72;97948.22;5014652;28;20416;-69
2022/08/08 06:45:36;;;;;;;3.60;2.50;;;;;;;24.11;38.56;97945.63;5027043;28;20445;-68
2022/08/08 06:48:02;;;;;;;3.03;2.10;;;;;;;24.24;38.28;97948.16;5016013;28;20509;-69
2022/08/08 06:50:29;;;;;;;2.40;2.07;;;;;;;24.39;38.37;97953.13;5041833;28;20433;-69
2022/08/08 06:52:55;;;;;;;6.23;2.10;;;;;;;24.48;38.08;97950.97;5023449;28;20420;-72
2022/08/08 06:55:21;;;;;;;3.43;1.80;;;;;;;24.62;38.64;97948.97;5030878;28;20438;-70
2022/08/08 06:57:46;;;;;;;3.40;2.40;;;;;;;24.79;38.51;97944.66;5026745;28;20186;-69
2022/08/08 07:00:12;;;;;;;3.60;2.23;;;;;;;24.96;37.65;97952.88;5016767;28;20931;-69
2022/08/08 07:02:41;;;;;;;2.63;2.33;;;;;;;25.11;37.96;97954.31;5038177;28;20190;-70
2022/08/08 07:05:08;;;;;;;4.37;2.70;;;;;;;25.26;37.68;97952.03;5017653;28;20285;-70
2022/08/08 07:08:03;;;;;;;3.53;2.37;;;;;;;25.41;37.80;97951.63;5044804;28;20457;-72
2022/08/08 07:10:35;;;;;;;4.33;2.50;;;;;;;25.56;38.20;97947.69;5035449;28;20422;-70
2022/08/08 07:13:06;;;;;;;5.30;2.73;;;;;;;25.67;37.78;97957.63;5039985;28;20433;-71
2022/08/08 07:15:44;;;;;;;7.10;2.40;;;;;;;25.71;37.69;97956.13;5042602;28;20537;-69
2022/08/08 07:18:10;;;;;;;2.63;2.43;;;;;;;25.84;37.72;97948.88;5045346;28;21141;-70
2022/08/08 07:20:42;;;;;;;4.30;2.30;;;;;;;25.97;37.80;97955.88;5043402;28;20452;-71
2022/08/08 07:23:21;;;;;;;3.83;2.70;;;;;;;26.04;37.32;97949.34;5045406;28;20468;-70
2022/08/08 07:25:49;;;;;;;3.10;2.20;;;;;;;26.21;37.17;97948.66;5043539;28;20430;-70
2022/08/08 07:28:18;;;;;;;6.30;2.47;;;;;;;26.32;37.14;97953.19;5044953;28;20512;-71
2022/08/08 07:30:44;;;;;;;2.80;2.40;;;;;;;26.09;37.46;97959.38;5042372;28;20414;-70
2022/08/08 07:33:11;;;;;;;5.00;2.90;;;;;;;25.95;37.34;97958.00;5031905;28;20467;-69
2022/08/08 07:35:37;;;;;;;5.67;2.30;;;;;;;26.24;37.45;97960.78;5048347;28;20437;-70
2022/08/08 07:38:03;;;;;;;3.70;2.50;;;;;;;26.46;37.51;97953.75;5039740;28;20429;-69
2022/08/08 07:40:30;;;;;;;6.00;2.60;;;;;;;26.64;36.81;97962.69;5032541;28;20434;-69
2022/08/08 07:42:55;;;;;;;2.37;2.17;;;;;;;26.78;36.71;97958.72;5037807;28;20261;-69
2022/08/08 07:45:22;;;;;;;2.23;2.03;;;;;;;26.98;36.26;97966.34;5042473;28;20838;-69
2022/08/08 07:47:48;;;;;;;4.10;2.20;;;;;;;27.18;36.08;97966.97;5040583;28;20202;-69
2022/08/08 07:50:14;;;;;;;2.70;2.30;;;;;;;27.29;35.54;97956.13;5044796;28;20889;-69
2022/08/08 07:52:43;;;;;;;4.70;2.30;;;;;;;27.43;34.95;97956.66;5051751;28;20200;-69
2022/08/08 07:55:24;;;;;;;6.43;2.63;;;;;;;27.41;34.35;97960.63;5044435;28;20682;-70
2022/08/08 07:57:58;;;;;;;10.17;2.57;;;;;;;27.07;35.31;97958.72;5051646;28;20927;-68
2022/08/08 08:00:29;;;;;;;4.60;2.50;;;;;;;27.36;35.72;97965.94;5046839;28;20425;-68
2022/08/08 08:03:02;;;;;;;2.63;2.43;;;;;;;27.64;34.98;97972.34;5043000;28;20452;-69
2022/08/08 08:05:29;;;;;;;2.70;2.40;;;;;;;27.84;34.24;97969.97;5048372;28;20445;-69
2022/08/08 08:08:01;;;;;;;2.43;2.23;;;;;;;27.99;33.68;97971.25;5041121;28;20587;-68
2022/08/08 08:10:27;;;;;;;5.07;2.10;;;;;;;28.00;33.70;97976.38;5044000;28;20796;-68
2022/08/08 08:13:20;;;;;;;4.30;2.20;;;;;;;28.15;33.80;97977.69;5045831;28;20829;-68
2022/08/08 08:16:08;;;;;;;5.03;2.30;;;;;;;28.39;33.06;97975.59;5039922;28;20466;-69
2022/08/08 08:18:41;;;;;;;4.23;2.40;;;;;;;28.54;32.54;97971.47;5039119;28;20452;-68
2022/08/08 08:21:07;;;;;;;2.37;2.17;;;;;;;28.58;32.36;97973.44;5040447;28;20438;-69
2022/08/08 08:23:33;;;;;;;7.20;2.30;;;;;;;28.71;31.96;97971.41;5053133;28;20422;-69
2022/08/08 08:25:58;;;;;;;4.33;1.97;;;;;;;28.84;32.39;97975.63;5034250;28;20192;-69
2022/08/08 08:28:24;;;;;;;3.63;1.97;;;;;;;29.00;32.04;97972.03;5049049;28;20214;-69
2022/08/08 08:30:51;;;;;;;4.80;2.10;;;;;;;29.14;31.75;97967.03;5048171;28;20187;-69
2022/08/08 08:33:16;;;;;;;2.37;2.10;;;;;;;29.25;31.74;97967.94;5039136;28;20273;-69
2022/08/08 08:35:42;;;;;;;3.40;2.10;;;;;;;29.31;31.74;97975.00;5050980;28;20474;-69
2022/08/08 08:38:07;;;;;;;3.60;2.20;;;;;;;29.44;32.00;97981.91;5042468;28;20191;-69
2022/08/08 08:40:33;;;;;;;2.80;2.27;;;;;;;29.61;31.39;97975.59;5048695;28;20225;-68
2022/08/08 08:42:59;;;;;;;2.37;2.20;;;;;;;29.20;31.43;97970.59;5041570;28;20180;-68
2022/08/08 08:45:24;;;;;;;3.80;1.90;;;;;;;29.52;31.96;97976.03;5041056;28;20345;-69
2022/08/08 08:47:53;;;;;;;7.57;2.13;;;;;;;29.55;30.94;97972.03;5043215;28;20207;-70
2022/08/08 08:50:20;;;;;;;4.40;1.93;;;;;;;29.77;31.39;97974.59;5043196;28;20206;-70
2022/08/08 08:52:46;;;;;;;3.03;2.07;;;;;;;29.95;30.76;97980.72;5048726;28;20410;-70
2022/08/08 08:55:16;;;;;;;2.90;2.17;;;;;;;30.13;30.74;97977.56;5040945;28;20883;-67
2022/08/08 08:57:42;;;;;;;3.67;2.00;;;;;;;30.11;30.10;97976.22;5033173;28;20179;-70
2022/08/08 09:00:09;;;;;;;1.63;1.53;;;;;;;30.14;30.43;97979.19;5024418;28;21010;-69
2022/08/08 09:02:36;;;;;;;2.00;1.90;;;;;;;30.35;30.22;97973.94;5025490;28;20425;-71
2022/08/08 09:05:06;;;;;;;2.33;1.80;;;;;;;30.48;29.09;97978.84;5037826;28;20451;-70
2022/08/08 09:07:33;;;;;;;1.77;1.67;;;;;;;30.60;28.67;97970.53;5028289;28;20449;-69
2022/08/08 09:09:59;;;;;;;1.73;1.63;;;;;;;30.75;28.70;97972.47;5045860;28;20958;-70
2022/08/08 09:12:26;;;;;;;4.50;2.00;;;;;;;30.93;28.39;97964.97;5038794;28;20500;-69
2022/08/08 09:14:54;;;;;;;1.83;1.73;;;;;;;31.03;28.24;97967.69;5046576;28;20235;-69
2022/08/08 09:17:25;;;;;;;2.13;1.80;;;;;;;31.24;27.48;97963.16;5041391;28;20461;-68
2022/08/08 09:19:55;;;;;;;4.77;1.70;;;;;;;31.34;26.68;97972.34;5047483;28;20754;-70
2022/08/08 09:22:22;;;;;;;1.67;1.40;;;;;;;31.48;26.27;97967.22;5043173;28;20415;-70
2022/08/08 09:24:52;;;;;;;1.90;1.70;;;;;;;31.44;26.35;97968.84;5046606;28;20861;-69
2022/08/08 09:27:19;;;;;;;5.30;1.70;;;;;;;31.33;26.59;97971.56;5042069;28;20972;-71
2022/08/08 09:30:07;;;;;;;2.13;1.93;;;;;;;31.50;26.96;97967.78;5046316;28;20453;-70
2022/08/08 09:32:38;;;;;;;2.40;1.67;;;;;;;31.77;26.94;97969.41;5043564;28;20953;-70
2022/08/08 09:35:10;;;;;;;2.50;1.80;;;;;;;31.98;25.88;97967.47;5046250;28;20464;-71
2022/08/08 09:37:51;;;;;;;2.67;1.87;;;;;;;31.97;25.06;97973.97;5000197;28;1243089;-70
2022/08/08 09:40:27;;;;;;;3.00;1.87;;;;;;;32.13;25.01;97963.94;5032222;28;20216;-70
2022/08/08 09:43:11;;;;;;;4.90;1.80;;;;;;;32.22;24.78;97970.41;5037892;28;20515;-70
2022/08/08 09:45:56;;;;;;;3.63;2.13;;;;;;;32.41;25.22;97973.34;5029924;28;20863;-71
2022/08/08 09:48:23;;;;;;;1.83;1.70;;;;;;;32.59;24.98;97977.34;5038575;28;20543;-70
2022/08/08 09:50:50;;;;;;;3.77;1.90;;;;;;;32.68;24.98;97974.06;5044011;28;20813;-68
2022/08/08 09:53:18;;;;;;;3.43;1.93;;;;;;;32.77;24.73;97975.91;5046411;28;20478;-71
2022/08/08 09:55:45;;;;;;;3.43;1.63;;;;;;;32.81;24.36;97965.34;5042038;28;20505;-70
2022/08/08 09:58:15;;;;;;;10.93;1.80;;;;;;;32.82;23.75;97966.16;5044896;28;20437;-70
2022/08/08 10:00:40;;;;;;;4.63;1.90;;;;;;;32.87;23.88;97964.22;5046426;28;20447;-70
2022/08/08 10:03:06;;;;;;;1.60;1.50;;;;;;;32.93;23.65;97963.09;5041003;28;20819;-71
2022/08/08 10:05:36;;;;;;;2.33;1.50;;;;;;;33.04;22.98;97969.28;5046206;28;20219;-69
2022/08/08 10:08:03;;;;;;;2.53;1.90;;;;;;;33.18;23.32;97969.44;5040329;28;20211;-69
2022/08/08 10:10:42;;;;;;;5.93;1.70;;;;;;;33.24;23.36;97967.50;5045896;28;20461;-70
2022/08/08 10:13:18;;;;;;;3.20;1.87;;;;;;;33.31;22.89;97964.47;5043255;28;20443;-69
2022/08/08 10:15:46;;;;;;;1.77;1.30;;;;;;;33.46;23.32;97958.94;5042248;28;20510;-69
2022/08/08 10:18:12;;;;;;;6.43;1.90;;;;;;;33.31;23.14;97961.75;5047455;28;20461;-70
2022/08/08 10:20:45;;;;;;;6.07;1.80;;;;;;;33.30;23.79;97960.13;5044448;28;20415;-70
2022/08/08 10:23:13;;;;;;;3.53;1.77;;;;;;;33.40;23.33;97954.66;5036119;28;20195;-69
2022/08/08 10:25:41;;;;;;;4.13;1.73;;;;;;;33.41;22.57;97950.03;5045322;28;20971;-69
2022/08/08 10:28:14;;;;;;;2.80;1.57;;;;;;;33.54;22.47;97955.63;5027176;28;20460;-69
2022/08/08 10:30:54;;;;;;;3.43;1.40;;;;;;;33.62;21.75;97947.97;5043808;28;20429;-70
2022/08/08 10:33:29;;;;;;;2.27;1.60;;;;;;;33.73;22.20;97944.06;5043286;28;20453;-69
2022/08/08 10:35:55;;;;;;;4.00;1.50;;;;;;;33.78;22.15;97941.28;5047613;28;20450;-69
2022/08/08 10:38:21;;;;;;;1.97;1.47;;;;;;;33.89;21.43;97943.94;5040118;28;20472;-68
2022/08/08 10:40:51;;;;;;;3.63;1.60;;;;;;;33.85;21.87;97930.88;5049218;28;20441;-70
2022/08/08 10:43:17;;;;;;;5.80;1.53;;;;;;;33.99;21.28;97960.13;5044396;28;20473;-71
2022/08/08 10:45:43;;;;;;;3.00;1.50;;;;;;;33.88;21.52;97947.75;5043584;28;20469;-68
2022/08/08 10:48:10;;;;;;;1.80;1.50;;;;;;;33.95;21.31;97940.06;5023411;28;20287;-70
2022/08/08 10:50:37;;;;;;;1.40;1.30;;;;;;;33.92;21.46;97938.72;5043459;28;20460;-69
2022/08/08 10:53:04;;;;;;;4.33;1.50;;;;;;;33.93;21.66;97947.69;5012218;28;20427;-68
2022/08/08 10:55:30;;;;;;;1.67;1.50;;;;;;;33.72;21.58;97934.28;5027786;28;20445;-69
2022/08/08 10:58:00;;;;;;;2.10;1.90;;;;;;;33.17;22.54;97940.66;5048750;28;20413;-68
2022/08/08 11:00:26;;;;;;;2.27;1.37;;;;;;;32.79;22.71;97945.78;5044738;28;20214;-67
2022/08/08 11:02:53;;;;;;;2.50;1.53;;;;;;;32.66;23.77;97944.50;5042774;28;20468;-69
2022/08/08 11:05:18;;;;;;;3.80;1.90;;;;;;;32.43;24.24;97944.06;5039777;28;20199;-68
2022/08/08 11:07:49;;;;;;;2.33;1.90;;;;;;;32.53;24.43;97948.63;5032063;28;20442;-68
2022/08/08 11:10:17;;;;;;;3.93;2.17;;;;;;;32.46;24.45;97948.91;5040178;28;20191;-69
2022/08/08 11:12:46;;;;;;;4.30;1.50;;;;;;;32.29;24.30;97933.00;5048856;28;21110;-68
2022/08/08 11:15:16;;;;;;;1.90;1.80;;;;;;;32.08;23.99;97928.69;5045849;28;20453;-69
2022/08/08 11:17:43;;;;;;;3.27;1.60;;;;;;;31.94;23.74;97931.97;5043020;28;20433;-68
2022/08/08 11:20:10;;;;;;;1.60;1.47;;;;;;;32.18;23.18;97931.38;5044772;28;20436;-70
2022/08/08 11:22:37;;;;;;;2.33;1.40;;;;;;;32.62;23.48;97925.25;5043998;28;20445;-68
2022/08/08 11:25:05;;;;;;;1.63;1.20;;;;;;;32.96;22.10;97928.34;5039611;28;20824;-69
2022/08/08 11:27:33;;;;;;;1.47;1.10;;;;;;;33.31;21.91;97913.69;5032202;28;21130;-69
2022/08/08 11:30:00;;;;;;;3.83;1.50;;;;;;;33.67;21.86;97910.69;5040218;28;20429;-70
2022/08/08 11:32:29;;;;;;;3.30;1.50;;;;;;;33.87;21.15;97905.34;5042952;28;20426;-69
2022/08/08 11:35:11;;;;;;;1.63;1.40;;;;;;;34.07;20.96;97907.84;5045131;28;20464;-70
2022/08/08 11:37:38;;;;;;;1.33;1.23;;;;;;;34.30;21.20;97911.66;5042091;28;20468;-70
2022/08/08 11:40:06;;;;;;;1.60;1.30;;;;;;;34.37;21.25;97907.75;5039635;28;20428;-69
2022/08/08 11:42:32;;;;;;;4.40;1.27;;;;;;;34.21;20.56;97912.59;5043387;28;20473;-69
2022/08/08 11:44:58;;;;;;;2.80;1.10;;;;;;;34.06;20.63;97900.78;5038743;28;20442;-69
2022/08/08 11:47:24;;;;;;;2.20;1.40;;;;;;;34.01;20.70;97909.00;5047088;28;21471;-70
2022/08/08 11:50:02;;;;;;;1.50;1.40;;;;;;;34.24;21.00;97906.56;5040578;28;20175;-68
2022/08/08 11:52:27;;;;;;;8.00;1.47;;;;;;;34.44;19.74;97911.75;5048577;28;20479;-69
2022/08/08 11:54:53;;;;;;;4.27;1.37;;;;;;;34.53;20.19;97914.66;5039976;28;20431;-69
2022/08/08 11:57:21;;;;;;;2.60;1.20;;;;;;;34.56;19.14;97903.19;5047700;28;20191;-69
2022/08/08 11:59:55;;;;;;;4.03;1.30;;;;;;;34.71;19.05;97901.34;5042626;28;20188;-68
2022/08/08 12:02:25;;;;;;;1.90;1.40;;;;;;;34.66;19.31;97895.97;5041011;28;20422;-69